Time,TemperatureF,DewpointF,PressureIn,WindDirection,WindDirectionDegrees,WindSpeedMPH,WindSpeedGustMPH,Humidity,HourlyPrecipIn,Conditions,Clouds,dailyrainin,SolarRadiationWatts/m^2,SoftwareType,DateUTC
2014-02-03 00:03:00,30.3,25.2,29.97,NNW,346,0.0,-999.0,81,0.00,,,0.00,0.0,WeatherSnoop3.0,2014-02-03 08:03:00,
2014-02-03 00:08:00,30.2,25.4,29.97,NNW,346,0.0,-999.0,82,0.00,,,0.00,0.0,WeatherSnoop3.0,2014-02-03 08:08:00,
2014-02-03 00:13:00,30.1,25.3,29.97,NNW,346,0.0,-999.0,82,0.00,,,0.00,0.0,WeatherSnoop3.0,2014-02-03 08:13:00,
2014-02-03 00:18:00,30.1,25.6,29.97,NNW,347,0.0,-999.0,83,0.00,,,0.00,0.0,WeatherSnoop3.0,2014-02-03 08:18:00,
2014-02-03 00:23:00,30.1,25.6,29.97,NNW,346,0.0,-999.0,83,0.00,,,0.00,0.0,WeatherSnoop3.0,2014-02-03 08:23:00,
2014-02-03 00:28:00,30.2,26.0,29.97,NNW,346,0.0,-999.0,84,0.00,,,0.00,0.0,WeatherSnoop3.0,2014-02-03 08:28:00,
2014-02-03 00:34:00,30.4,26.2,29.97,NNW,347,0.0,-999.0,84,0.00,,,0.00,0.0,WeatherSnoop3.0,2014-02-03 08:34:00,
2014-02-03 00:40:00,30.6,26.6,29.97,NNW,347,0.0,-999.0,85,0.00,,,0.00,0.0,WeatherSnoop3.0,2014-02-03 08:40:00,
2014-02-03 00:45:00,30.7,26.7,29.97,NNW,347,0.0,-999.0,85,0.00,,,0.00,0.0,WeatherSnoop3.0,2014-02-03 08:45:00,
2014-02-03 00:51:00,30.7,27.0,29.97,NNW,347,0.0,-999.0,86,0.00,,,0.00,0.0,WeatherSnoop3.0,2014-02-03 08:51:00,
2014-02-03 00:56:00,30.7,26.7,29.97,NNW,347,0.0,-999.0,85,0.00,,,0.00,0.0,WeatherSnoop3.0,2014-02-03 08:56:00,
2014-02-03 01:01:00,30.6,26.6,29.97,NNW,347,0.0,-999.0,85,0.00,,,0.00,0.0,WeatherSnoop3.0,2014-02-03 09:01:00,
2014-02-03 01:06:00,30.5,26.5,29.97,NNW,347,0.0,-999.0,85,0.00,,,0.00,0.0,WeatherSnoop3.0,2014-02-03 09:06:00,
2014-02-03 01:11:00,30.4,26.4,29.97,NNW,346,0.0,-999.0,85,0.00,,,0.00,0.0,WeatherSnoop3.0,2014-02-03 09:11:00,
2014-02-03 01:16:00,30.3,26.3,29.96,NNW,347,0.0,-999.0,85,0.00,,,0.00,0.0,WeatherSnoop3.0,2014-02-03 09:16:00,
2014-02-03 01:21:00,30.1,26.1,29.97,NNW,347,0.0,-999.0,85,0.00,,,0.00,0.0,WeatherSnoop3.0,2014-02-03 09:21:00,
2014-02-03 01:26:00,30.0,26.0,29.97,NNW,346,0.0,-999.0,85,0.00,,,0.00,0.0,WeatherSnoop3.0,2014-02-03 09:26:00,
2014-02-03 01:31:00,29.9,26.0,29.97,NNW,346,0.0,-999.0,85,0.00,,,0.00,0.0,WeatherSnoop3.0,2014-02-03 09:31:00,
2014-02-03 01:36:00,29.8,25.9,29.97,NNW,347,0.0,-999.0,85,0.00,,,0.00,0.0,WeatherSnoop3.0,2014-02-03 09:36:00,
2014-02-03 01:41:00,29.7,25.8,29.97,NNW,347,0.0,-999.0,85,0.00,,,0.00,0.0,WeatherSnoop3.0,2014-02-03 09:41:00,
2014-02-03 01:46:00,29.5,25.6,29.97,NNW,347,0.0,-999.0,85,0.00,,,0.00,0.0,WeatherSnoop3.0,2014-02-03 09:46:00,
2014-02-03 01:51:00,29.4,25.5,29.98,NNW,346,0.0,-999.0,85,0.00,,,0.00,0.0,WeatherSnoop3.0,2014-02-03 09:51:00,
2014-02-03 01:57:00,29.3,25.4,29.97,NNW,347,0.0,-999.0,85,0.00,,,0.00,0.0,WeatherSnoop3.0,2014-02-03 09:57:00,
2014-02-03 02:02:00,29.3,25.4,29.97,NNW,347,0.0,-999.0,85,0.00,,,0.00,0.0,WeatherSnoop3.0,2014-02-03 10:02:00,
2014-02-03 02:07:00,29.2,25.3,29.97,NNW,346,0.0,-999.0,85,0.00,,,0.00,0.0,WeatherSnoop3.0,2014-02-03 10:07:00,
2014-02-03 02:12:00,29.1,25.2,29.97,NNW,346,0.0,-999.0,85,0.00,,,0.00,0.0,WeatherSnoop3.0,2014-02-03 10:12:00,
2014-02-03 02:17:00,29.0,25.1,29.97,NNW,347,0.0,-999.0,85,0.00,,,0.00,0.0,WeatherSnoop3.0,2014-02-03 10:17:00,
2014-02-03 02:22:00,28.9,25.0,29.97,NNW,347,0.0,-999.0,85,0.00,,,0.00,0.0,WeatherSnoop3.0,2014-02-03 10:22:00,
2014-02-03 02:27:00,28.8,24.9,29.96,NNW,347,0.0,-999.0,85,0.00,,,0.00,0.0,WeatherSnoop3.0,2014-02-03 10:27:00,
2014-02-03 02:32:00,28.8,24.9,29.97,NNW,347,0.0,-999.0,85,0.00,,,0.00,0.0,WeatherSnoop3.0,2014-02-03 10:32:00,
2014-02-03 02:37:00,28.7,24.8,29.97,NNW,347,0.0,-999.0,85,0.00,,,0.00,0.0,WeatherSnoop3.0,2014-02-03 10:37:00,
2014-02-03 02:42:00,28.6,24.7,29.96,NNW,347,0.0,-999.0,85,0.00,,,0.00,0.0,WeatherSnoop3.0,2014-02-03 10:42:00,
2014-02-03 02:47:00,28.7,25.1,29.96,NNW,346,0.0,-999.0,86,0.00,,,0.00,0.0,WeatherSnoop3.0,2014-02-03 10:47:00,
2014-02-03 02:52:00,28.7,25.1,29.96,NNW,347,0.0,-999.0,86,0.00,,,0.00,0.0,WeatherSnoop3.0,2014-02-03 10:52:00,
2014-02-03 02:58:00,28.8,25.4,29.95,NNW,347,0.0,-999.0,87,0.00,,,0.00,0.0,WeatherSnoop3.0,2014-02-03 10:58:00,
2014-02-03 03:03:00,28.9,25.5,29.95,NNW,347,0.0,-999.0,87,0.00,,,0.00,0.0,WeatherSnoop3.0,2014-02-03 11:03:00,
2014-02-03 03:08:00,29.0,25.6,29.95,NNW,346,0.0,-999.0,87,0.00,,,0.00,0.0,WeatherSnoop3.0,2014-02-03 11:08:00,
2014-02-03 03:13:00,29.0,25.6,29.96,NNW,347,0.0,-999.0,87,0.00,,,0.00,0.0,WeatherSnoop3.0,2014-02-03 11:13:00,
2014-02-03 03:18:00,29.1,25.7,29.96,NNW,347,0.0,-999.0,87,0.00,,,0.00,0.0,WeatherSnoop3.0,2014-02-03 11:18:00,
2014-02-03 03:23:00,29.1,25.7,29.96,NNW,346,0.0,-999.0,87,0.00,,,0.00,0.0,WeatherSnoop3.0,2014-02-03 11:23:00,
2014-02-03 03:28:00,29.0,25.6,29.96,NNW,346,0.0,-999.0,87,0.00,,,0.00,0.0,WeatherSnoop3.0,2014-02-03 11:28:00,
2014-02-03 03:33:00,29.0,25.6,29.96,NNW,346,0.0,-999.0,87,0.00,,,0.00,0.0,WeatherSnoop3.0,2014-02-03 11:33:00,
2014-02-03 03:38:00,28.9,25.5,29.96,NNW,347,0.0,-999.0,87,0.00,,,0.00,0.0,WeatherSnoop3.0,2014-02-03 11:38:00,
2014-02-03 03:43:00,28.9,25.5,29.96,NNW,347,0.0,-999.0,87,0.00,,,0.00,0.0,WeatherSnoop3.0,2014-02-03 11:43:00,
2014-02-03 03:48:00,28.8,25.4,29.96,NNW,347,0.0,-999.0,87,0.00,,,0.00,0.0,WeatherSnoop3.0,2014-02-03 11:48:00,
2014-02-03 03:53:00,28.8,25.7,29.96,NNW,346,0.0,-999.0,88,0.00,,,0.00,0.0,WeatherSnoop3.0,2014-02-03 11:53:00,
2014-02-03 03:58:00,28.7,25.6,29.96,NNW,346,0.0,-999.0,88,0.00,,,0.00,0.0,WeatherSnoop3.0,2014-02-03 11:58:00,
2014-02-03 04:03:00,28.6,25.5,29.96,NNW,346,0.0,-999.0,88,0.00,,,0.00,0.0,WeatherSnoop3.0,2014-02-03 12:03:00,
2014-02-03 04:08:00,28.5,25.1,29.96,NNW,347,0.0,-999.0,87,0.00,,,0.00,0.0,WeatherSnoop3.0,2014-02-03 12:08:00,
2014-02-03 04:13:00,28.4,25.0,29.97,NNW,346,0.0,-999.0,87,0.00,,,0.00,0.0,WeatherSnoop3.0,2014-02-03 12:13:00,
2014-02-03 04:18:00,28.3,24.9,29.96,NNW,346,0.0,-999.0,87,0.00,,,0.00,0.0,WeatherSnoop3.0,2014-02-03 12:18:00,
2014-02-03 04:23:00,28.2,24.8,29.96,NNW,346,0.0,-999.0,87,0.00,,,0.00,0.0,WeatherSnoop3.0,2014-02-03 12:23:00,
2014-02-03 04:28:00,28.1,24.7,29.96,NNW,347,0.0,-999.0,87,0.00,,,0.00,0.0,WeatherSnoop3.0,2014-02-03 12:28:00,
2014-02-03 04:33:00,28.0,24.6,29.96,NNW,347,0.0,-999.0,87,0.00,,,0.00,0.0,WeatherSnoop3.0,2014-02-03 12:33:00,
2014-02-03 04:38:00,27.9,24.5,29.96,NNW,346,0.0,-999.0,87,0.00,,,0.00,0.0,WeatherSnoop3.0,2014-02-03 12:38:00,
2014-02-03 04:43:00,27.8,24.4,29.96,NNW,347,0.0,-999.0,87,0.00,,,0.00,0.0,WeatherSnoop3.0,2014-02-03 12:43:00,
2014-02-03 04:48:00,27.8,24.4,29.96,NNW,346,0.0,-999.0,87,0.00,,,0.00,0.0,WeatherSnoop3.0,2014-02-03 12:48:00,
2014-02-03 04:53:00,27.6,24.2,29.96,NNW,347,0.0,-999.0,87,0.00,,,0.00,0.0,WeatherSnoop3.0,2014-02-03 12:53:00,
2014-02-03 04:59:00,27.6,24.2,29.96,NNW,346,0.0,-999.0,87,0.00,,,0.00,0.0,WeatherSnoop3.0,2014-02-03 12:59:00,
2014-02-03 05:04:00,27.5,24.1,29.96,NNW,347,0.0,-999.0,87,0.00,,,0.00,0.0,WeatherSnoop3.0,2014-02-03 13:04:00,
2014-02-03 05:09:00,27.4,24.1,29.96,NNW,346,0.0,-999.0,87,0.00,,,0.00,0.0,WeatherSnoop3.0,2014-02-03 13:09:00,
2014-02-03 05:14:00,27.3,24.0,29.96,NNW,346,0.0,-999.0,87,0.00,,,0.00,0.0,WeatherSnoop3.0,2014-02-03 13:14:00,
2014-02-03 05:19:00,27.3,24.0,29.96,NNW,347,0.0,-999.0,87,0.00,,,0.00,0.0,WeatherSnoop3.0,2014-02-03 13:19:00,
2014-02-03 05:24:00,27.2,23.9,29.96,NNW,346,0.0,-999.0,87,0.00,,,0.00,0.0,WeatherSnoop3.0,2014-02-03 13:24:00,
2014-02-03 05:29:00,27.1,23.8,29.97,NNW,347,0.0,-999.0,87,0.00,,,0.00,0.0,WeatherSnoop3.0,2014-02-03 13:29:00,
2014-02-03 05:34:00,27.0,23.7,29.97,NNW,347,0.0,-999.0,87,0.00,,,0.00,0.0,WeatherSnoop3.0,2014-02-03 13:34:00,
2014-02-03 05:39:00,26.9,23.6,29.97,NNW,347,0.0,-999.0,87,0.00,,,0.00,0.0,WeatherSnoop3.0,2014-02-03 13:39:00,
2014-02-03 05:44:00,26.9,23.8,29.97,NNW,346,0.0,-999.0,88,0.00,,,0.00,0.0,WeatherSnoop3.0,2014-02-03 13:44:00,
2014-02-03 05:49:00,26.8,23.5,29.97,NNW,346,0.0,-999.0,87,0.00,,,0.00,0.0,WeatherSnoop3.0,2014-02-03 13:49:00,
2014-02-03 05:54:00,26.7,23.4,29.97,NNW,346,0.0,-999.0,87,0.00,,,0.00,0.0,WeatherSnoop3.0,2014-02-03 13:54:00,
2014-02-03 06:00:00,26.5,23.2,29.98,NNW,346,0.0,-999.0,87,0.00,,,0.00,0.0,WeatherSnoop3.0,2014-02-03 14:00:00,
2014-02-03 06:05:00,26.5,23.2,29.98,NNW,346,0.0,-999.0,87,0.00,,,0.00,0.0,WeatherSnoop3.0,2014-02-03 14:05:00,
2014-02-03 06:10:00,26.3,23.0,29.98,NNW,346,0.0,-999.0,87,0.00,,,0.00,0.0,WeatherSnoop3.0,2014-02-03 14:10:00,
2014-02-03 06:15:00,26.3,23.2,29.98,NNW,347,0.0,-999.0,88,0.00,,,0.00,0.0,WeatherSnoop3.0,2014-02-03 14:15:00,
2014-02-03 06:20:00,26.2,23.1,29.99,NNW,347,0.0,-999.0,88,0.00,,,0.00,0.0,WeatherSnoop3.0,2014-02-03 14:20:00,
2014-02-03 06:25:00,26.2,22.9,29.99,NNW,346,0.0,-999.0,87,0.00,,,0.00,0.0,WeatherSnoop3.0,2014-02-03 14:25:00,
2014-02-03 06:30:00,26.2,23.1,29.99,NNW,346,0.0,-999.0,88,0.00,,,0.00,0.0,WeatherSnoop3.0,2014-02-03 14:30:00,
2014-02-03 06:35:00,26.1,23.0,29.99,NNW,346,0.0,-999.0,88,0.00,,,0.00,0.0,WeatherSnoop3.0,2014-02-03 14:35:00,
2014-02-03 06:40:00,26.1,23.0,29.99,NNW,347,0.0,-999.0,88,0.00,,,0.00,0.0,WeatherSnoop3.0,2014-02-03 14:40:00,
2014-02-03 06:45:00,26.1,23.0,29.99,NNW,347,0.0,-999.0,88,0.00,,,0.00,0.0,WeatherSnoop3.0,2014-02-03 14:45:00,
2014-02-03 06:50:00,26.1,23.0,30.00,NNW,346,0.0,-999.0,88,0.00,,,0.00,0.0,WeatherSnoop3.0,2014-02-03 14:50:00,
2014-02-03 06:55:00,26.0,22.9,30.00,NNW,346,0.0,-999.0,88,0.00,,,0.00,0.0,WeatherSnoop3.0,2014-02-03 14:55:00,
2014-02-03 07:00:00,26.0,22.9,30.00,NNW,346,0.0,-999.0,88,0.00,,,0.00,9.0,WeatherSnoop3.0,2014-02-03 15:00:00,
2014-02-03 07:05:00,26.0,22.9,30.00,NNW,346,0.0,-999.0,88,0.00,,,0.00,12.0,WeatherSnoop3.0,2014-02-03 15:05:00,
2014-02-03 07:10:00,26.0,22.9,30.00,NNW,346,0.0,-999.0,88,0.00,,,0.00,16.0,WeatherSnoop3.0,2014-02-03 15:10:00,
2014-02-03 07:16:00,25.9,22.8,30.00,NNW,346,0.0,-999.0,88,0.00,,,0.00,19.0,WeatherSnoop3.0,2014-02-03 15:16:00,
2014-02-03 07:21:00,25.9,22.8,30.00,NNW,346,0.0,-999.0,88,0.00,,,0.00,23.0,WeatherSnoop3.0,2014-02-03 15:21:00,
2014-02-03 07:27:00,25.9,22.8,30.00,NNW,346,0.0,-999.0,88,0.00,,,0.00,28.0,WeatherSnoop3.0,2014-02-03 15:27:00,
2014-02-03 07:32:00,25.9,22.8,30.00,NNW,346,0.0,-999.0,88,0.00,,,0.00,26.0,WeatherSnoop3.0,2014-02-03 15:32:00,
2014-02-03 07:38:00,26.0,22.9,30.00,NNW,347,0.0,-999.0,88,0.00,,,0.00,26.0,WeatherSnoop3.0,2014-02-03 15:38:00,
2014-02-03 07:43:00,26.0,22.9,30.01,NNW,346,0.0,-999.0,88,0.00,,,0.00,33.0,WeatherSnoop3.0,2014-02-03 15:43:00,
2014-02-03 07:49:00,26.1,23.0,30.01,NNW,346,0.0,-999.0,88,0.00,,,0.00,37.0,WeatherSnoop3.0,2014-02-03 15:49:00,
2014-02-03 07:55:00,26.2,23.1,30.01,NNW,347,0.0,-999.0,88,0.00,,,0.00,46.0,WeatherSnoop3.0,2014-02-03 15:55:00,
2014-02-03 08:00:00,26.2,23.1,30.01,NNW,346,0.0,-999.0,88,0.00,,,0.00,44.0,WeatherSnoop3.0,2014-02-03 16:00:00,
2014-02-03 08:06:00,26.4,23.6,30.02,NNW,346,0.0,-999.0,89,0.00,,,0.00,51.0,WeatherSnoop3.0,2014-02-03 16:06:00,
2014-02-03 08:11:00,26.6,23.8,30.02,NNW,346,0.0,-999.0,89,0.00,,,0.00,47.0,WeatherSnoop3.0,2014-02-03 16:11:00,
2014-02-03 08:17:00,27.2,24.7,30.02,NNW,346,0.0,-999.0,90,0.00,,,0.00,179.0,WeatherSnoop3.0,2014-02-03 16:17:00,
2014-02-03 08:22:00,28.3,25.8,30.02,NNW,347,0.0,-999.0,90,0.00,,,0.00,241.0,WeatherSnoop3.0,2014-02-03 16:22:00,
2014-02-03 08:27:00,29.6,27.0,30.02,NNW,346,0.0,-999.0,90,0.00,,,0.00,125.0,WeatherSnoop3.0,2014-02-03 16:27:00,
2014-02-03 08:33:00,30.6,28.0,30.02,NNW,346,0.0,-999.0,90,0.00,,,0.00,276.0,WeatherSnoop3.0,2014-02-03 16:33:00,
2014-02-03 08:39:00,31.2,28.3,30.02,NNW,346,0.0,-999.0,89,0.00,,,0.00,283.0,WeatherSnoop3.0,2014-02-03 16:39:00,
2014-02-03 08:45:00,32.5,29.6,30.02,NNW,346,0.0,-999.0,89,0.00,,,0.00,320.0,WeatherSnoop3.0,2014-02-03 16:45:00,
2014-02-03 08:51:00,33.7,30.3,30.02,NNW,346,0.0,-999.0,87,0.00,,,0.00,352.0,WeatherSnoop3.0,2014-02-03 16:51:00,
2014-02-03 08:56:00,34.5,30.2,30.03,NNW,346,0.0,-999.0,84,0.00,,,0.00,346.0,WeatherSnoop3.0,2014-02-03 16:56:00,
2014-02-03 09:01:00,35.2,30.0,30.02,NNW,346,0.0,-999.0,81,0.00,,,0.00,359.0,WeatherSnoop3.0,2014-02-03 17:01:00,
2014-02-03 09:07:00,36.2,29.4,30.02,NNW,346,0.0,-999.0,76,0.00,,,0.00,385.0,WeatherSnoop3.0,2014-02-03 17:07:00,
2014-02-03 09:12:00,36.6,29.8,30.02,NNW,346,0.0,-999.0,76,0.00,,,0.00,390.0,WeatherSnoop3.0,2014-02-03 17:12:00,
2014-02-03 09:17:00,38.3,30.1,30.02,NNW,346,0.0,-999.0,72,0.00,,,0.00,403.0,WeatherSnoop3.0,2014-02-03 17:17:00,
2014-02-03 09:22:00,38.2,28.6,30.02,NNW,346,0.0,-999.0,68,0.00,,,0.00,420.0,WeatherSnoop3.0,2014-02-03 17:22:00,
2014-02-03 09:28:00,38.4,27.7,30.01,NNW,346,0.0,-999.0,65,0.00,,,0.00,438.0,WeatherSnoop3.0,2014-02-03 17:28:00,
2014-02-03 09:34:00,39.1,27.2,30.01,ESE,111,0.0,-999.0,62,0.00,,,0.00,466.0,WeatherSnoop3.0,2014-02-03 17:34:00,
2014-02-03 09:39:00,39.7,27.4,30.01,ESE,111,0.0,-999.0,61,0.00,,,0.00,483.0,WeatherSnoop3.0,2014-02-03 17:39:00,
2014-02-03 09:45:00,39.7,26.6,30.01,ESE,111,0.0,-999.0,59,0.00,,,0.00,499.0,WeatherSnoop3.0,2014-02-03 17:45:00,
2014-02-03 09:50:00,39.9,26.8,30.01,ESE,111,0.0,-999.0,59,0.00,,,0.00,512.0,WeatherSnoop3.0,2014-02-03 17:50:00,
2014-02-03 09:55:00,40.2,26.6,30.02,ESE,111,0.0,-999.0,58,0.00,,,0.00,520.0,WeatherSnoop3.0,2014-02-03 17:55:00,
2014-02-03 10:01:00,41.5,26.6,30.01,ESE,119,0.0,-999.0,55,0.00,,,0.00,533.0,WeatherSnoop3.0,2014-02-03 18:01:00,
2014-02-03 10:06:00,41.9,27.4,30.01,ESE,119,0.0,-999.0,56,0.00,,,0.00,547.0,WeatherSnoop3.0,2014-02-03 18:06:00,
2014-02-03 10:12:00,42.3,27.3,30.01,South,179,0.0,-999.0,55,0.00,,,0.00,555.0,WeatherSnoop3.0,2014-02-03 18:12:00,
2014-02-03 10:17:00,42.5,27.5,30.01,South,179,0.0,-999.0,55,0.00,,,0.00,570.0,WeatherSnoop3.0,2014-02-03 18:17:00,
2014-02-03 10:23:00,43.3,28.2,30.02,East,80,0.0,-999.0,55,0.00,,,0.00,480.0,WeatherSnoop3.0,2014-02-03 18:23:00,
2014-02-03 10:29:00,43.3,29.1,30.01,SW,214,0.0,-999.0,57,0.00,,,0.00,613.0,WeatherSnoop3.0,2014-02-03 18:29:00,
2014-02-03 10:34:00,43.3,29.1,30.01,South,186,0.0,-999.0,57,0.00,,,0.00,605.0,WeatherSnoop3.0,2014-02-03 18:34:00,
2014-02-03 10:39:00,43.3,29.5,30.01,South,171,0.0,-999.0,58,0.00,,,0.00,619.0,WeatherSnoop3.0,2014-02-03 18:39:00,
2014-02-03 10:44:00,43.7,29.5,30.01,SE,134,0.0,-999.0,57,0.00,,,0.00,633.0,WeatherSnoop3.0,2014-02-03 18:44:00,
2014-02-03 10:50:00,44.2,29.5,30.00,SSE,159,0.0,-999.0,56,0.00,,,0.00,628.0,WeatherSnoop3.0,2014-02-03 18:50:00,
2014-02-03 10:55:00,44.2,29.1,30.00,East,90,0.0,-999.0,55,0.00,,,0.00,645.0,WeatherSnoop3.0,2014-02-03 18:55:00,
2014-02-03 11:01:00,44.5,30.2,30.00,SSE,165,0.0,-999.0,57,0.00,,,0.00,643.0,WeatherSnoop3.0,2014-02-03 19:01:00,
2014-02-03 11:06:00,45.0,29.8,30.00,SSE,164,0.0,-999.0,55,0.00,,,0.00,645.0,WeatherSnoop3.0,2014-02-03 19:06:00,
2014-02-03 11:11:00,45.3,30.1,30.00,ESE,109,0.0,-999.0,55,0.00,,,0.00,654.0,WeatherSnoop3.0,2014-02-03 19:11:00,
2014-02-03 11:16:00,45.5,29.8,30.00,SE,146,0.0,-999.0,54,0.00,,,0.00,663.0,WeatherSnoop3.0,2014-02-03 19:16:00,
2014-02-03 11:22:00,45.8,30.1,30.00,SSE,167,0.0,-999.0,54,0.00,,,0.00,668.0,WeatherSnoop3.0,2014-02-03 19:22:00,
2014-02-03 11:27:00,46.0,30.3,29.99,SW,224,1.0,-999.0,54,0.00,,,0.00,679.0,WeatherSnoop3.0,2014-02-03 19:27:00,
2014-02-03 11:32:00,46.1,30.4,29.99,SSE,162,0.0,-999.0,54,0.00,,,0.00,705.0,WeatherSnoop3.0,2014-02-03 19:32:00,
2014-02-03 11:37:00,46.6,30.4,29.99,SSW,207,1.0,-999.0,53,0.00,,,0.00,717.0,WeatherSnoop3.0,2014-02-03 19:37:00,
2014-02-03 11:43:00,46.8,30.6,29.98,SSW,205,0.0,-999.0,53,0.00,,,0.00,719.0,WeatherSnoop3.0,2014-02-03 19:43:00,
2014-02-03 11:48:00,47.2,30.5,29.97,ESE,115,2.0,-999.0,52,0.00,,,0.00,735.0,WeatherSnoop3.0,2014-02-03 19:48:00,
2014-02-03 11:53:00,47.6,29.9,29.97,East,91,0.0,-999.0,50,0.00,,,0.00,715.0,WeatherSnoop3.0,2014-02-03 19:53:00,
2014-02-03 11:58:00,47.9,29.7,29.97,ESE,105,2.0,-999.0,49,0.00,,,0.00,770.0,WeatherSnoop3.0,2014-02-03 19:58:00,
2014-02-03 12:03:00,48.1,30.4,29.97,WSW,246,1.0,-999.0,50,0.00,,,0.00,255.0,WeatherSnoop3.0,2014-02-03 20:03:00,
2014-02-03 12:08:00,49.1,29.8,29.96,WSW,245,0.0,-999.0,47,0.00,,,0.00,267.0,WeatherSnoop3.0,2014-02-03 20:08:00,
2014-02-03 12:13:00,49.3,29.9,29.96,WSW,255,1.0,-999.0,47,0.00,,,0.00,712.0,WeatherSnoop3.0,2014-02-03 20:13:00,
2014-02-03 12:18:00,49.5,31.1,29.95,WSW,249,2.0,-999.0,49,0.00,,,0.00,693.0,WeatherSnoop3.0,2014-02-03 20:18:00,
2014-02-03 12:24:00,49.7,29.8,29.95,WNW,293,1.0,-999.0,46,0.00,,,0.00,687.0,WeatherSnoop3.0,2014-02-03 20:24:00,
2014-02-03 12:29:00,50.0,30.6,29.95,WSW,242,0.0,-999.0,47,0.00,,,0.00,726.0,WeatherSnoop3.0,2014-02-03 20:29:00,
2014-02-03 12:35:00,49.7,30.3,29.94,West,264,0.0,-999.0,47,0.00,,,0.00,744.0,WeatherSnoop3.0,2014-02-03 20:35:00,
2014-02-03 12:40:00,49.9,29.4,29.94,West,274,4.0,-999.0,45,0.00,,,0.00,680.0,WeatherSnoop3.0,2014-02-03 20:40:00,
2014-02-03 12:45:00,50.0,30.0,29.94,West,265,0.0,-999.0,46,0.00,,,0.00,694.0,WeatherSnoop3.0,2014-02-03 20:45:00,
2014-02-03 12:51:00,49.7,29.8,29.93,West,269,2.0,-999.0,46,0.00,,,0.00,689.0,WeatherSnoop3.0,2014-02-03 20:51:00,
2014-02-03 12:56:00,49.1,30.3,29.93,West,273,0.0,-999.0,48,0.00,,,0.00,698.0,WeatherSnoop3.0,2014-02-03 20:56:00,
2014-02-03 13:01:00,49.7,29.8,29.93,WNW,285,4.0,-999.0,46,0.00,,,0.00,687.0,WeatherSnoop3.0,2014-02-03 21:01:00,
2014-02-03 13:07:00,49.9,30.0,29.93,West,280,1.0,-999.0,46,0.00,,,0.00,696.0,WeatherSnoop3.0,2014-02-03 21:07:00,
2014-02-03 13:12:00,49.5,29.1,29.93,West,275,1.0,-999.0,45,0.00,,,0.00,657.0,WeatherSnoop3.0,2014-02-03 21:12:00,
2014-02-03 13:17:00,49.9,28.9,29.93,West,277,4.0,-999.0,44,0.00,,,0.00,673.0,WeatherSnoop3.0,2014-02-03 21:17:00,
2014-02-03 13:22:00,49.8,28.8,29.93,WNW,296,1.0,-999.0,44,0.00,,,0.00,649.0,WeatherSnoop3.0,2014-02-03 21:22:00,
2014-02-03 13:28:00,50.1,29.6,29.93,WNW,288,1.0,-999.0,45,0.00,,,0.00,643.0,WeatherSnoop3.0,2014-02-03 21:28:00,
2014-02-03 13:34:00,49.8,29.9,29.93,WNW,296,0.0,-999.0,46,0.00,,,0.00,642.0,WeatherSnoop3.0,2014-02-03 21:34:00,
2014-02-03 13:39:00,49.6,29.7,29.93,West,281,4.0,-999.0,46,0.00,,,0.00,591.0,WeatherSnoop3.0,2014-02-03 21:39:00,
2014-02-03 13:45:00,49.4,29.5,29.93,NW,313,2.0,-999.0,46,0.00,,,0.00,613.0,WeatherSnoop3.0,2014-02-03 21:45:00,
2014-02-03 13:51:00,49.3,29.9,29.93,WNW,295,1.0,-999.0,47,0.00,,,0.00,591.0,WeatherSnoop3.0,2014-02-03 21:51:00,
2014-02-03 13:56:00,49.5,28.5,29.93,WNW,289,0.0,-999.0,44,0.00,,,0.00,580.0,WeatherSnoop3.0,2014-02-03 21:56:00,
2014-02-03 14:01:00,49.5,29.1,29.93,NW,309,0.0,-999.0,45,0.00,,,0.00,577.0,WeatherSnoop3.0,2014-02-03 22:01:00,
2014-02-03 14:07:00,49.5,29.6,29.92,West,263,4.0,-999.0,46,0.00,,,0.00,555.0,WeatherSnoop3.0,2014-02-03 22:07:00,
2014-02-03 14:12:00,49.5,28.5,29.92,NNW,341,10.0,-999.0,44,0.00,,,0.00,531.0,WeatherSnoop3.0,2014-02-03 22:12:00,
2014-02-03 14:17:00,49.5,28.5,29.93,North,355,7.0,-999.0,44,0.00,,,0.00,455.0,WeatherSnoop3.0,2014-02-03 22:17:00,
2014-02-03 14:22:00,49.3,28.3,29.93,North,355,2.0,-999.0,44,0.00,,,0.00,448.0,WeatherSnoop3.0,2014-02-03 22:22:00,
2014-02-03 14:27:00,49.3,27.8,29.92,ENE,71,2.0,-999.0,43,0.00,,,0.00,279.0,WeatherSnoop3.0,2014-02-03 22:27:00,
2014-02-03 14:33:00,49.2,29.3,29.93,North,355,1.0,-999.0,46,0.00,,,0.00,302.0,WeatherSnoop3.0,2014-02-03 22:33:00,
2014-02-03 14:38:00,49.1,27.0,29.93,NW,314,4.0,-999.0,42,0.00,,,0.00,141.0,WeatherSnoop3.0,2014-02-03 22:38:00,
2014-02-03 14:44:00,48.6,27.1,29.93,NW,321,1.0,-999.0,43,0.00,,,0.00,156.0,WeatherSnoop3.0,2014-02-03 22:44:00,
2014-02-03 14:49:00,48.9,27.4,29.93,WNW,292,5.0,-999.0,43,0.00,,,0.00,195.0,WeatherSnoop3.0,2014-02-03 22:49:00,
2014-02-03 14:54:00,48.3,28.0,29.93,NW,326,5.0,-999.0,45,0.00,,,0.00,167.0,WeatherSnoop3.0,2014-02-03 22:54:00,
2014-02-03 14:59:00,48.1,28.3,29.93,WNW,294,4.0,-999.0,46,0.00,,,0.00,132.0,WeatherSnoop3.0,2014-02-03 22:59:00,
2014-02-03 15:05:00,48.1,27.8,29.93,NNW,336,9.0,-999.0,45,0.00,,,0.00,153.0,WeatherSnoop3.0,2014-02-03 23:05:00,
2014-02-03 15:10:00,48.0,28.2,29.93,WNW,290,2.0,-999.0,46,0.00,,,0.00,105.0,WeatherSnoop3.0,2014-02-03 23:10:00,
2014-02-03 15:16:00,48.0,28.7,29.92,WNW,282,0.0,-999.0,47,0.00,,,0.00,74.0,WeatherSnoop3.0,2014-02-03 23:16:00,
2014-02-03 15:21:00,48.1,28.3,29.93,WNW,295,5.0,-999.0,46,0.00,,,0.00,84.0,WeatherSnoop3.0,2014-02-03 23:21:00,
2014-02-03 15:26:00,48.0,29.3,29.93,NW,305,4.0,-999.0,48,0.00,,,0.00,81.0,WeatherSnoop3.0,2014-02-03 23:26:00,
2014-02-03 15:32:00,48.1,28.8,29.93,WNW,288,2.0,-999.0,47,0.00,,,0.00,65.0,WeatherSnoop3.0,2014-02-03 23:32:00,
2014-02-03 15:38:00,47.8,28.6,29.93,West,275,1.0,-999.0,47,0.00,,,0.00,72.0,WeatherSnoop3.0,2014-02-03 23:38:00,
2014-02-03 15:44:00,47.6,28.4,29.93,West,269,4.0,-999.0,47,0.00,,,0.00,37.0,WeatherSnoop3.0,2014-02-03 23:44:00,
2014-02-03 15:49:00,47.2,28.5,29.93,NW,309,2.0,-999.0,48,0.00,,,0.00,35.0,WeatherSnoop3.0,2014-02-03 23:49:00,
2014-02-03 15:55:00,46.8,28.2,29.93,WNW,300,2.0,-999.0,48,0.00,,,0.00,33.0,WeatherSnoop3.0,2014-02-03 23:55:00,
2014-02-03 16:01:00,46.5,27.9,29.93,West,271,2.0,-999.0,48,0.00,,,0.00,30.0,WeatherSnoop3.0,2014-02-04 00:01:00,
2014-02-03 16:06:00,46.1,28.0,29.93,West,280,2.0,-999.0,49,0.00,,,0.00,28.0,WeatherSnoop3.0,2014-02-04 00:06:00,
2014-02-03 16:11:00,46.0,27.9,29.93,NW,322,2.0,-999.0,49,0.00,,,0.00,28.0,WeatherSnoop3.0,2014-02-04 00:11:00,
2014-02-03 16:17:00,45.8,27.7,29.94,West,281,6.0,-999.0,49,0.00,,,0.00,28.0,WeatherSnoop3.0,2014-02-04 00:17:00,
2014-02-03 16:22:00,45.7,28.1,29.94,NW,319,1.0,-999.0,50,0.00,,,0.00,25.0,WeatherSnoop3.0,2014-02-04 00:22:00,
2014-02-03 16:27:00,45.5,28.0,29.94,WNW,299,4.0,-999.0,50,0.00,,,0.00,25.0,WeatherSnoop3.0,2014-02-04 00:27:00,
2014-02-03 16:33:00,45.5,28.0,29.94,NNW,334,10.0,-999.0,50,0.00,,,0.00,19.0,WeatherSnoop3.0,2014-02-04 00:33:00,
2014-02-03 16:39:00,45.5,27.5,29.94,West,279,1.0,-999.0,49,0.00,,,0.00,16.0,WeatherSnoop3.0,2014-02-04 00:39:00,
2014-02-03 16:44:00,45.5,27.5,29.94,NW,304,1.0,-999.0,49,0.00,,,0.00,14.0,WeatherSnoop3.0,2014-02-04 00:44:00,
2014-02-03 16:50:00,45.5,28.0,29.94,NNW,342,4.0,-999.0,50,0.00,,,0.00,12.0,WeatherSnoop3.0,2014-02-04 00:50:00,
2014-02-03 16:55:00,45.4,27.9,29.94,WNW,294,2.0,-999.0,50,0.00,,,0.00,11.0,WeatherSnoop3.0,2014-02-04 00:55:00,
2014-02-03 17:01:00,45.3,27.8,29.94,WNW,284,1.0,-999.0,50,0.00,,,0.00,9.0,WeatherSnoop3.0,2014-02-04 01:01:00,
2014-02-03 17:06:00,45.2,27.7,29.94,WNW,285,0.0,-999.0,50,0.00,,,0.00,7.0,WeatherSnoop3.0,2014-02-04 01:06:00,
2014-02-03 17:12:00,45.3,27.3,29.94,NW,305,2.0,-999.0,49,0.00,,,0.00,5.0,WeatherSnoop3.0,2014-02-04 01:12:00,
2014-02-03 17:18:00,45.4,27.4,29.94,WNW,295,0.0,-999.0,49,0.00,,,0.00,0.0,WeatherSnoop3.0,2014-02-04 01:18:00,
2014-02-03 17:23:00,45.4,27.4,29.94,WNW,294,1.0,-999.0,49,0.00,,,0.00,0.0,WeatherSnoop3.0,2014-02-04 01:23:00,
2014-02-03 17:29:00,45.3,27.3,29.94,WNW,286,0.0,-999.0,49,0.00,,,0.00,0.0,WeatherSnoop3.0,2014-02-04 01:29:00,
2014-02-03 17:34:00,45.2,27.2,29.94,West,281,1.0,-999.0,49,0.00,,,0.00,0.0,WeatherSnoop3.0,2014-02-04 01:34:00,
2014-02-03 17:40:00,45.1,27.6,29.94,West,281,0.0,-999.0,50,0.00,,,0.00,0.0,WeatherSnoop3.0,2014-02-04 01:40:00,
2014-02-03 17:46:00,45.0,27.0,29.94,West,279,0.0,-999.0,49,0.00,,,0.00,0.0,WeatherSnoop3.0,2014-02-04 01:46:00,
2014-02-03 17:51:00,45.0,26.5,29.95,West,281,0.0,-999.0,48,0.00,,,0.00,0.0,WeatherSnoop3.0,2014-02-04 01:51:00,
2014-02-03 17:57:00,44.9,26.4,29.95,NW,321,0.0,-999.0,48,0.00,,,0.00,0.0,WeatherSnoop3.0,2014-02-04 01:57:00,
2014-02-03 18:02:00,44.9,25.9,29.96,NW,321,0.0,-999.0,47,0.00,,,0.00,0.0,WeatherSnoop3.0,2014-02-04 02:02:00,
2014-02-03 18:07:00,45.0,26.5,29.96,WNW,284,1.0,-999.0,48,0.00,,,0.00,0.0,WeatherSnoop3.0,2014-02-04 02:07:00,
2014-02-03 18:13:00,45.0,26.5,29.96,WNW,284,0.0,-999.0,48,0.00,,,0.00,0.0,WeatherSnoop3.0,2014-02-04 02:13:00,
2014-02-03 18:18:00,44.9,26.4,29.96,WNW,285,0.0,-999.0,48,0.00,,,0.00,0.0,WeatherSnoop3.0,2014-02-04 02:18:00,
2014-02-03 18:24:00,44.8,27.3,29.96,WNW,284,0.0,-999.0,50,0.00,,,0.00,0.0,WeatherSnoop3.0,2014-02-04 02:24:00,
2014-02-03 18:29:00,44.5,26.5,29.96,WNW,285,0.0,-999.0,49,0.00,,,0.00,0.0,WeatherSnoop3.0,2014-02-04 02:29:00,
2014-02-03 18:34:00,44.4,26.0,29.96,WNW,284,0.0,-999.0,48,0.00,,,0.00,0.0,WeatherSnoop3.0,2014-02-04 02:34:00,
2014-02-03 18:40:00,44.4,26.5,29.97,WNW,286,1.0,-999.0,49,0.00,,,0.00,0.0,WeatherSnoop3.0,2014-02-04 02:40:00,
2014-02-03 18:46:00,44.6,27.1,29.97,North,350,0.0,-999.0,50,0.00,,,0.00,0.0,WeatherSnoop3.0,2014-02-04 02:46:00,
2014-02-03 18:51:00,44.5,26.5,29.97,West,279,1.0,-999.0,49,0.00,,,0.00,0.0,WeatherSnoop3.0,2014-02-04 02:51:00,
2014-02-03 18:56:00,44.8,27.3,29.97,NNW,344,0.0,-999.0,50,0.00,,,0.00,0.0,WeatherSnoop3.0,2014-02-04 02:56:00,
2014-02-03 19:01:00,44.6,27.6,29.97,WNW,282,0.0,-999.0,51,0.00,,,0.00,0.0,WeatherSnoop3.0,2014-02-04 03:01:00,
2014-02-03 19:07:00,44.4,27.9,29.98,West,281,0.0,-999.0,52,0.00,,,0.00,0.0,WeatherSnoop3.0,2014-02-04 03:07:00,
2014-02-03 19:12:00,44.3,27.8,29.98,WNW,282,0.0,-999.0,52,0.00,,,0.00,0.0,WeatherSnoop3.0,2014-02-04 03:12:00,
2014-02-03 19:18:00,44.3,26.8,29.98,WNW,282,0.0,-999.0,50,0.00,,,0.00,0.0,WeatherSnoop3.0,2014-02-04 03:18:00,
2014-02-03 19:24:00,43.8,27.3,29.98,West,281,0.0,-999.0,52,0.00,,,0.00,0.0,WeatherSnoop3.0,2014-02-04 03:24:00,
2014-02-03 19:29:00,43.8,26.9,29.98,NNW,336,0.0,-999.0,51,0.00,,,0.00,0.0,WeatherSnoop3.0,2014-02-04 03:29:00,
2014-02-03 19:35:00,44.0,27.0,29.98,NNW,336,0.0,-999.0,51,0.00,,,0.00,0.0,WeatherSnoop3.0,2014-02-04 03:35:00,
2014-02-03 19:41:00,44.1,27.1,29.99,NNW,336,0.0,-999.0,51,0.00,,,0.00,0.0,WeatherSnoop3.0,2014-02-04 03:41:00,
2014-02-03 19:46:00,43.9,27.4,29.99,NNW,336,0.0,-999.0,52,0.00,,,0.00,0.0,WeatherSnoop3.0,2014-02-04 03:46:00,
2014-02-03 19:51:00,43.6,27.6,29.99,NNW,336,0.0,-999.0,53,0.00,,,0.00,0.0,WeatherSnoop3.0,2014-02-04 03:51:00,
2014-02-03 19:56:00,43.3,27.3,29.99,NNW,336,0.0,-999.0,53,0.00,,,0.00,0.0,WeatherSnoop3.0,2014-02-04 03:56:00,
2014-02-03 20:02:00,42.8,27.8,29.99,NNW,336,0.0,-999.0,55,0.00,,,0.00,0.0,WeatherSnoop3.0,2014-02-04 04:02:00,
2014-02-03 20:07:00,42.4,28.7,29.99,East,93,0.0,-999.0,58,0.00,,,0.00,0.0,WeatherSnoop3.0,2014-02-04 04:07:00,
2014-02-03 20:12:00,41.5,28.7,29.99,East,93,0.0,-999.0,60,0.00,,,0.00,0.0,WeatherSnoop3.0,2014-02-04 04:12:00,
2014-02-03 20:18:00,41.1,28.7,29.99,East,93,0.0,-999.0,61,0.00,,,0.00,0.0,WeatherSnoop3.0,2014-02-04 04:18:00,
2014-02-03 20:23:00,40.8,29.6,29.99,SSW,200,0.0,-999.0,64,0.00,,,0.00,0.0,WeatherSnoop3.0,2014-02-04 04:23:00,
2014-02-03 20:28:00,40.8,30.3,29.99,SSW,199,0.0,-999.0,66,0.00,,,0.00,0.0,WeatherSnoop3.0,2014-02-04 04:28:00,
2014-02-03 20:33:00,40.7,30.6,29.99,SSW,199,0.0,-999.0,67,0.00,,,0.00,0.0,WeatherSnoop3.0,2014-02-04 04:33:00,
2014-02-03 20:38:00,40.5,31.1,29.99,SSW,200,0.0,-999.0,69,0.00,,,0.00,0.0,WeatherSnoop3.0,2014-02-04 04:38:00,
2014-02-03 20:44:00,40.3,31.7,30.00,SSW,199,0.0,-999.0,71,0.00,,,0.00,0.0,WeatherSnoop3.0,2014-02-04 04:44:00,
2014-02-03 20:50:00,39.8,31.5,30.00,SSW,200,0.0,-999.0,72,0.00,,,0.00,0.0,WeatherSnoop3.0,2014-02-04 04:50:00,
2014-02-03 20:55:00,39.4,31.5,30.00,SSW,200,0.0,-999.0,73,0.00,,,0.00,0.0,WeatherSnoop3.0,2014-02-04 04:55:00,
2014-02-03 21:01:00,39.0,31.1,30.01,SSW,200,0.0,-999.0,73,0.00,,,0.00,0.0,WeatherSnoop3.0,2014-02-04 05:01:00,
2014-02-03 21:02:00,38.8,30.9,30.01,SSW,200,0.0,-999.0,73,0.00,,,0.00,0.0,WeatherSnoop3.0,2014-02-04 05:02:00,
2014-02-03 21:03:00,38.8,30.9,30.01,SSW,200,0.0,-999.0,73,0.00,,,0.00,0.0,WeatherSnoop3.0,2014-02-04 05:03:00,
2014-02-03 21:04:00,38.6,30.7,30.01,SSW,200,0.0,-999.0,73,0.00,,,0.00,0.0,WeatherSnoop3.0,2014-02-04 05:04:00,
2014-02-03 21:05:00,38.5,30.6,30.01,SSW,200,0.0,-999.0,73,0.00,,,0.00,0.0,WeatherSnoop3.0,2014-02-04 05:05:00,
2014-02-03 21:08:00,38.3,30.8,30.01,SSW,200,0.0,-999.0,74,0.00,,,0.00,0.0,WeatherSnoop3.0,2014-02-04 05:08:00,
2014-02-03 21:14:00,38.0,30.8,30.01,SSW,200,0.0,-999.0,75,0.00,,,0.00,0.0,WeatherSnoop3.0,2014-02-04 05:14:00,
2014-02-03 21:20:00,37.9,31.0,30.02,SSW,199,0.0,-999.0,76,0.00,,,0.00,0.0,WeatherSnoop3.0,2014-02-04 05:20:00,
2014-02-03 21:25:00,37.5,31.0,30.02,SSW,199,0.0,-999.0,77,0.00,,,0.00,0.0,WeatherSnoop3.0,2014-02-04 05:25:00,
2014-02-03 21:30:00,37.4,30.5,30.02,SSW,199,0.0,-999.0,76,0.00,,,0.00,0.0,WeatherSnoop3.0,2014-02-04 05:30:00,
2014-02-03 21:36:00,37.1,30.2,30.02,SSW,200,0.0,-999.0,76,0.00,,,0.00,0.0,WeatherSnoop3.0,2014-02-04 05:36:00,
2014-02-03 21:42:00,36.6,30.1,30.02,SSW,200,0.0,-999.0,77,0.00,,,0.00,0.0,WeatherSnoop3.0,2014-02-04 05:42:00,
2014-02-03 21:47:00,36.4,29.9,30.02,SSW,200,0.0,-999.0,77,0.00,,,0.00,0.0,WeatherSnoop3.0,2014-02-04 05:47:00,
2014-02-03 21:52:00,36.2,30.0,30.02,SSW,200,0.0,-999.0,78,0.00,,,0.00,0.0,WeatherSnoop3.0,2014-02-04 05:52:00,
2014-02-03 21:57:00,35.6,29.4,30.03,SSW,200,0.0,-999.0,78,0.00,,,0.00,0.0,WeatherSnoop3.0,2014-02-04 05:57:00,
2014-02-03 22:03:00,35.1,28.9,30.03,SSW,199,0.0,-999.0,78,0.00,,,0.00,0.0,WeatherSnoop3.0,2014-02-04 06:03:00,
2014-02-03 22:08:00,35.2,29.0,30.03,SSW,200,0.0,-999.0,78,0.00,,,0.00,0.0,WeatherSnoop3.0,2014-02-04 06:08:00,
2014-02-03 22:13:00,35.1,28.9,30.03,SSW,200,0.0,-999.0,78,0.00,,,0.00,0.0,WeatherSnoop3.0,2014-02-04 06:13:00,
2014-02-03 22:19:00,35.0,29.5,30.02,SSW,199,0.0,-999.0,80,0.00,,,0.00,0.0,WeatherSnoop3.0,2014-02-04 06:19:00,
2014-02-03 22:25:00,35.2,29.7,30.03,SSW,200,0.0,-999.0,80,0.00,,,0.00,0.0,WeatherSnoop3.0,2014-02-04 06:25:00,
2014-02-03 22:30:00,34.5,28.4,30.03,SSW,199,0.0,-999.0,78,0.00,,,0.00,0.0,WeatherSnoop3.0,2014-02-04 06:30:00,
2014-02-03 22:35:00,34.2,28.7,30.03,SSW,200,0.0,-999.0,80,0.00,,,0.00,0.0,WeatherSnoop3.0,2014-02-04 06:35:00,
2014-02-03 22:40:00,34.1,28.6,30.03,SSW,200,0.0,-999.0,80,0.00,,,0.00,0.0,WeatherSnoop3.0,2014-02-04 06:40:00,
2014-02-03 22:45:00,34.0,28.8,30.03,SSW,200,0.0,-999.0,81,0.00,,,0.00,0.0,WeatherSnoop3.0,2014-02-04 06:45:00,
2014-02-03 22:51:00,33.9,28.4,30.03,SSW,200,0.0,-999.0,80,0.00,,,0.00,0.0,WeatherSnoop3.0,2014-02-04 06:51:00,
2014-02-03 22:56:00,33.6,28.4,30.03,SSW,200,0.0,-999.0,81,0.00,,,0.00,0.0,WeatherSnoop3.0,2014-02-04 06:56:00,
2014-02-03 23:01:00,33.1,28.2,30.03,SSW,200,0.0,-999.0,82,0.00,,,0.00,0.0,WeatherSnoop3.0,2014-02-04 07:01:00,
2014-02-03 23:07:00,33.1,28.5,30.04,SSW,199,0.0,-999.0,83,0.00,,,0.00,0.0,WeatherSnoop3.0,2014-02-04 07:07:00,
2014-02-03 23:12:00,32.9,28.3,30.04,SSW,199,0.0,-999.0,83,0.00,,,0.00,0.0,WeatherSnoop3.0,2014-02-04 07:12:00,
2014-02-03 23:18:00,32.9,28.3,30.04,SSW,200,0.0,-999.0,83,0.00,,,0.00,0.0,WeatherSnoop3.0,2014-02-04 07:18:00,
2014-02-03 23:23:00,33.0,28.7,30.03,SSW,200,0.0,-999.0,84,0.00,,,0.00,0.0,WeatherSnoop3.0,2014-02-04 07:23:00,
2014-02-03 23:28:00,33.2,28.9,30.03,SSW,200,0.0,-999.0,84,0.00,,,0.00,0.0,WeatherSnoop3.0,2014-02-04 07:28:00,
2014-02-03 23:33:00,33.0,28.4,30.03,SSW,200,0.0,-999.0,83,0.00,,,0.00,0.0,WeatherSnoop3.0,2014-02-04 07:33:00,
2014-02-03 23:39:00,33.1,28.5,30.03,SSW,200,0.0,-999.0,83,0.00,,,0.00,0.0,WeatherSnoop3.0,2014-02-04 07:39:00,
2014-02-03 23:44:00,32.9,28.3,30.03,SSW,199,0.0,-999.0,83,0.00,,,0.00,0.0,WeatherSnoop3.0,2014-02-04 07:44:00,
2014-02-03 23:50:00,33.0,28.7,30.03,SSW,200,0.0,-999.0,84,0.00,,,0.00,0.0,WeatherSnoop3.0,2014-02-04 07:50:00,
2014-02-03 23:56:00,32.9,28.6,30.03,SSW,200,0.0,-999.0,84,0.00,,,0.00,0.0,WeatherSnoop3.0,2014-02-04 07:56:00,